Terminal Aerodrome Forecast
Issued by NWS

Home | Current Version | Previous Version | Text Only | Print | Product List | Glossary On
Versions: 1 2 3 4 5 6 7 8 9 10 11 12 13 14 15 16 17 18 19 20 21 22 23 24 25 26 27 28
000
FTAK31 PANC 301140
TAFACD
TAF
PACD 301140Z 3012/3112 15012KT P6SM FEW020 BKN040 OVC080
      TEMPO 3013/3015 -SHRA BKN020
     FM301500 12011KT P6SM -RA OVC020
     FM302100 13015G22KT 5SM -RA BR OVC025
     FM310300 13012G20KT P6SM -SHRA BKN015 OVC025=

USA.gov is the U.S. government's official web portal to all federal, state and local government web resources and services.